Flight Track Log - Related Links

Times and Time Zones

All times are in EDT time to prevent confusion due to time zone crossing. See the BJS624 flight status page for this flight to view local times or setup timezone preferences in your user account.

Time Position Orientation Groundspeed Altitude Reporting Facility
EDT Latitude Longitude Course Direction KTS MPH feet Rate Location/Type
Wed 01:54:54 PM 40.4133 -79.9150 78° East 267 307 5,600  Level Cleveland Center
Wed 01:55:54 PM 40.4314 -79.8058 75° East 249 287 9,100 3,150 Climbing Cleveland Center
Wed 01:56:54 PM 40.4575 -79.6744 62° Northeast 293 337 11,900 3,450 Climbing Cleveland Center
Wed 01:57:54 PM 40.5128 -79.5372 60° Northeast 370 426 16,000 4,100 Climbing Cleveland Center
Wed 01:58:54 PM 40.5739 -79.3967 60° Northeast 412 474 20,100 3,500 Climbing Cleveland Center
Wed 01:59:54 PM 40.6369 -79.2506 61° Northeast 442 509 23,000 2,750 Climbing Cleveland Center
Wed 02:00:54 PM 40.7036 -79.0931 61° Northeast 470 541 25,600 2,900 Climbing Cleveland Center
Wed 02:01:54 PM 40.7683 -78.9381 61° Northeast 477 549 28,800 3,100 Climbing Cleveland Center
Wed 02:02:54 PM 40.8328 -78.7828 61° Northeast 482 555 31,800 2,700 Climbing Cleveland Center
Wed 02:03:54 PM 40.8989 -78.6272 62° Northeast 482 555 34,200 1,600 Climbing Cleveland Center
Wed 02:04:54 PM 40.9628 -78.4686 61° Northeast 482 555 35,000 229 Climbing Cleveland Center
Wed 02:07:24 PM 41.1258 -78.0736 62° Northeast 507 583 35,000  Level New York Center
Wed 02:08:24 PM 41.1944 -77.9047 62° Northeast 507 583 35,000  Level New York Center
Wed 02:09:23 PM 41.2631 -77.7350 62° Northeast 507 583 35,000  Level New York Center
Wed 02:10:23 PM 41.3383 -77.5494 62° Northeast 520 598 35,000  Level New York Center
Wed 02:11:25 PM 41.4061 -77.3819 62° Northeast 520 598 35,000  Level New York Center
Wed 02:12:23 PM 41.4736 -77.2142 63° Northeast 520 598 35,000  Level New York Center
Wed 02:13:23 PM 41.5394 -77.0375 61° Northeast 520 598 35,000  Level New York Center
Wed 02:14:24 PM 41.6108 -76.8664 64° Northeast 520 598 35,000  Level New York Center
Wed 02:15:24 PM 41.6736 -76.6944 61° Northeast 520 598 35,000  Level New York Center
Wed 02:16:23 PM 41.7350 -76.5442 62° Northeast 513 590 35,000 -706 Level New York Center
Wed 02:18:14 PM 41.8667 -76.2067 63° Northeast 512 589 33,000 -702 Descending Boston Center
Wed 02:19:14 PM 41.9328 -76.0319 62° Northeast 518 596 33,000  Level Boston Center
Wed 02:20:14 PM 42.0031 -75.8544 64° Northeast 527 606 33,000  Level Boston Center
Wed 02:21:14 PM 42.0664 -75.6817 64° Northeast 521 600 33,000  Level Boston Center
Wed 02:22:14 PM 42.1297 -75.5083 72° East 521 600 33,000  Level Boston Center
Wed 02:23:14 PM 42.1742 -75.3200 82° East 521 600 33,000  Level Boston Center
Wed 02:24:14 PM 42.1956 -75.1222 81° East 527 606 33,000  Level Boston Center
Wed 02:25:14 PM 42.2189 -74.9267 76° East 527 606 33,000  Level Boston Center
Wed 02:26:14 PM 42.2542 -74.7347 77° East 527 606 33,000  Level Boston Center
Wed 02:27:14 PM 42.2850 -74.5478 80° East 520 598 33,000  Level Boston Center
Wed 02:28:14 PM 42.3094 -74.3492 80° East 521 600 33,000  Level Boston Center
Wed 02:29:14 PM 42.3331 -74.1589 80° East 526 605 33,000  Level Boston Center
Wed 02:30:14 PM 42.3544 -73.9881 81° East 521 600 33,000 -800 Level Boston Center
Wed 02:31:14 PM 42.3778 -73.7919 82° East 521 600 31,400 -1,750 Descending Boston Center
Wed 02:32:14 PM 42.3986 -73.5928 83° East 526 605 29,500 -1,950 Descending Boston Center
Wed 02:33:14 PM 42.4172 -73.3961 81° East 526 605 27,500 -1,950 Descending Boston Center
Wed 02:34:14 PM 42.4397 -73.1911 82° East 535 616 25,600 -2,000 Descending Boston Center
Wed 02:35:14 PM 42.4594 -72.9944 83° East 530 610 23,500 -2,300 Descending Boston Center
Wed 02:36:14 PM 42.4769 -72.8061 83° East 528 608 21,000 -2,850 Descending Boston Center
Wed 02:37:14 PM 42.4961 -72.6061 82° East 502 578 17,800 -3,050 Descending Boston Center
Wed 02:38:14 PM 42.5131 -72.4317 83° East 483 556 14,900 -2,700 Descending Boston Center
Wed 02:39:14 PM 42.5275 -72.2597 84° East 465 535 12,400 -2,250 Descending Boston Center
Wed 02:40:14 PM 42.5394 -72.1161 89° East 406 467 10,400 -1,750 Descending Boston Center
Wed 02:41:14 PM 42.5411 -71.9892 98° East 355 409 8,900 -1,550 Descending Boston Center
Wed 02:42:14 PM 42.5281 -71.8681 97° East 328 377 7,300 -1,350 Descending Boston Center
Wed 02:43:14 PM 42.5172 -71.7528 96° East 313 360 6,200 -650 Descending Boston Center
Wed 02:44:14 PM 42.5081 -71.6431 74° East 302 348 6,000 -650 Descending Boston Center
Wed 02:45:14 PM 42.5303 -71.5386 63° Northeast 281 323 4,900 -1,500 Descending Boston Center
Wed 02:46:14 PM 42.5650 -71.4450 67° East 276 318 3,000 -1,388 Descending Boston Center
Wed 02:47:15 PM 42.5911 -71.3628 114° Southeast 269 310 2,100 -500 Descending Boston Center
Wed 02:48:14 PM 42.5675 -71.2900 139° Southeast 199 229 2,000 -252 Descending Boston Center
Wed 02:49:14 PM 42.5333 -71.2500 180° South 151 174 1,600 -500 Descending Boston TRACON
Wed 02:50:14 PM 42.5000 -71.2500 213° Southwest 119 137 1,000 9,133 Descending Boston TRACON
Wed 02:52:14 PM 42.4467 -71.2978 206° Southwest 120 138 29,000 9,333 Climbing Boston Center
Wed 02:53:14 PM 42.4158 -71.3181 209° Southwest 120 138 29,000  Level Boston Center
Wed 02:54:14 PM 42.3847 -71.3411 207° Southwest 120 138 29,000  Level Boston Center
Wed 02:55:14 PM 42.3597 -71.3583 360° North 120 138 29,000  Level Boston Center
Wed 02:56:14 PM 42.3597 -71.3583 360° North 120 138 29,000  Level Boston Center

Login

Don't have an account? Register now (free) for customized features, flight alerts, and more!